Time;durP1;ratioP1;P1;durP2;ratioP2;P2;SDS_P1;SDS_P2;PMS_P1;PMS_P2;Temp;Humidity;BMP_temperature;BMP_pressure;BME280_temperature;BME280_humidity;BME280_pressure;Samples;Min_cycle;Max_cycle;Signal;HPM_P1;HPM_P2
2020/12/18 00:00:24;;;;;;;4.78;1.85;;;17.90;55.60;;;;;;5062738;28;20086;-79
2020/12/18 00:02:50;;;;;;;6.65;1.85;;;18.00;55.70;;;;;;5075956;28;20059;-79
2020/12/18 00:05:15;;;;;;;3.70;1.80;;;18.00;55.70;;;;;;5055782;28;20101;-79
2020/12/18 00:07:42;;;;;;;5.13;1.95;;;18.00;55.70;;;;;;5074162;28;20031;-79
2020/12/18 00:10:08;;;;;;;3.58;1.70;;;17.90;55.70;;;;;;5088568;28;20056;-79
2020/12/18 00:12:34;;;;;;;3.60;1.60;;;17.90;55.70;;;;;;5073875;28;20074;-79
2020/12/18 00:14:59;;;;;;;4.38;1.70;;;17.90;55.70;;;;;;5058253;28;20031;-79
2020/12/18 00:17:25;;;;;;;3.38;2.00;;;18.00;55.70;;;;;;5087692;28;20053;-79
2020/12/18 00:19:51;;;;;;;3.85;1.70;;;18.00;55.70;;;;;;5069113;28;20052;-79
2020/12/18 00:22:16;;;;;;;2.58;1.50;;;17.90;55.70;;;;;;5055549;28;20083;-80
2020/12/18 00:25:02;;;;;;;4.03;1.60;;;17.90;55.70;;;;;;5064453;28;20051;-79
2020/12/18 00:27:28;;;;;;;5.25;1.83;;;17.90;55.70;;;;;;5071811;28;20036;-79
2020/12/18 00:29:53;;;;;;;4.70;1.73;;;17.90;55.70;;;;;;5088210;28;20050;-80
2020/12/18 00:32:19;;;;;;;4.00;1.70;;;17.90;55.80;;;;;;5056691;28;20086;-80
2020/12/18 00:34:45;;;;;;;4.38;1.60;;;17.90;55.80;;;;;;5091883;28;20447;-79
2020/12/18 00:37:30;;;;;;;3.35;1.60;;;17.90;55.80;;;;;;5053988;28;20048;-80
2020/12/18 00:39:56;;;;;;;5.07;2.22;;;17.90;55.80;;;;;;5057169;28;20400;-80
2020/12/18 00:42:22;;;;;;;5.18;1.73;;;17.90;55.80;;;;;;5066570;28;20052;-80
2020/12/18 00:44:48;;;;;;;3.35;1.80;;;17.90;55.80;;;;;;5059826;28;20080;-79
2020/12/18 00:47:14;;;;;;;4.68;1.88;;;17.90;55.80;;;;;;5048358;28;20124;-80
2020/12/18 00:49:40;;;;;;;5.25;1.77;;;18.00;55.80;;;;;;5031340;28;20063;-81
2020/12/18 00:52:26;;;;;;;4.38;1.75;;;17.90;55.80;;;;;;5038228;28;20488;-79
2020/12/18 00:54:52;;;;;;;4.40;1.92;;;17.80;55.70;;;;;;5033918;28;20056;-79
2020/12/18 00:57:18;;;;;;;4.43;1.60;;;17.90;55.70;;;;;;5038204;28;20052;-77
2020/12/18 00:59:43;;;;;;;6.45;1.80;;;17.90;56.40;;;;;;5044085;28;20472;-78
2020/12/18 01:02:09;;;;;;;3.67;1.73;;;17.90;55.70;;;;;;5045850;28;20084;-78
2020/12/18 01:04:35;;;;;;;3.85;1.58;;;17.90;55.80;;;;;;5041550;28;20061;-77
2020/12/18 01:07:20;;;;;;;18.15;1.83;;;17.90;55.80;;;;;;5053358;28;20468;-77
2020/12/18 01:10:06;;;;;;;6.13;1.83;;;17.80;55.70;;;;;;5042436;28;20059;-78
2020/12/18 01:12:32;;;;;;;2.15;1.40;;;17.90;55.80;;;;;;5058326;28;20033;-77
2020/12/18 01:14:57;;;;;;;5.20;2.00;;;17.90;55.80;;;;;;5059548;28;20074;-77
2020/12/18 01:17:23;;;;;;;7.20;2.17;;;17.80;55.70;;;;;;5045887;28;20056;-78
2020/12/18 01:20:09;;;;;;;3.30;1.70;;;17.90;55.80;;;;;;5041502;28;20503;-79
2020/12/18 01:22:34;;;;;;;7.25;1.80;;;17.80;55.70;;;;;;5065568;28;20037;-79
2020/12/18 01:25:00;;;;;;;4.22;1.80;;;17.80;55.70;;;;;;5065222;28;20180;-79
2020/12/18 01:27:26;;;;;;;4.28;1.73;;;17.80;55.80;;;;;;5051630;28;20028;-79
2020/12/18 01:29:52;;;;;;;3.55;1.40;;;17.80;55.80;;;;;;5068957;28;20119;-79
2020/12/18 01:32:17;;;;;;;3.80;1.55;;;17.80;55.80;;;;;;5031087;28;20063;-79
2020/12/18 01:34:44;;;;;;;4.85;1.90;;;17.80;55.80;;;;;;5066741;28;20032;-79
2020/12/18 01:37:13;;;;;;;4.68;1.75;;;17.80;55.80;;;;;;5064925;28;20056;-78
2020/12/18 01:39:58;;;;;;;5.63;1.70;;;17.80;55.80;;;;;;5055282;28;20047;-79
2020/12/18 01:42:24;;;;;;;3.55;1.60;;;17.80;55.80;;;;;;5057645;28;20589;-79
2020/12/18 01:45:10;;;;;;;5.85;1.77;;;17.80;55.80;;;;;;5051033;28;20840;-80
2020/12/18 01:47:36;;;;;;;3.60;1.70;;;17.70;55.70;;;;;;5068619;28;20060;-80
2020/12/18 01:50:02;;;;;;;3.03;1.65;;;17.70;55.70;;;;;;5069725;28;20086;-79
2020/12/18 01:52:28;;;;;;;3.13;1.63;;;17.80;55.80;;;;;;5062040;28;20056;-79
2020/12/18 01:54:55;;;;;;;3.25;1.60;;;17.80;55.80;;;;;;5061663;28;20028;-79
2020/12/18 01:57:21;;;;;;;3.85;1.70;;;17.90;55.80;;;;;;5067204;28;20060;-79
2020/12/18 01:59:47;;;;;;;2.92;1.50;;;17.80;55.80;;;;;;5065448;28;21820;-80
2020/12/18 02:02:16;;;;;;;3.80;1.65;;;17.80;55.80;;;;;;5032292;28;20043;-79
2020/12/18 02:04:46;;;;;;;3.08;1.35;;;17.80;55.80;;;;;;5051035;28;20036;-79
2020/12/18 02:07:12;;;;;;;5.35;1.88;;;17.80;55.80;;;;;;5059622;28;20432;-79
2020/12/18 02:09:38;;;;;;;3.20;1.60;;;17.70;55.70;;;;;;5066214;28;20059;-79
2020/12/18 02:12:04;;;;;;;3.33;1.77;;;17.80;55.80;;;;;;5065024;28;20136;-80
2020/12/18 02:14:53;;;;;;;7.10;1.90;;;17.70;55.70;;;;;;5051446;28;20083;-79
2020/12/18 02:17:19;;;;;;;3.97;1.80;;;17.70;55.70;;;;;;5058323;28;20029;-78
2020/12/18 02:19:50;;;;;;;3.55;1.88;;;17.70;55.70;;;;;;5045688;28;20062;-80
2020/12/18 02:22:17;;;;;;;3.90;1.73;;;17.70;55.70;;;;;;5056662;28;20045;-79
2020/12/18 02:24:58;;;;;;;3.03;1.70;;;17.70;55.80;;;;;;5067838;28;20044;-79
2020/12/18 02:27:24;;;;;;;3.90;1.70;;;17.70;55.70;;;;;;5064571;28;20044;-79
2020/12/18 02:29:51;;;;;;;5.00;1.80;;;17.70;55.70;;;;;;5063219;28;20498;-79
2020/12/18 02:32:37;;;;;;;5.72;1.70;;;17.70;55.70;;;;;;5048710;28;20098;-78
2020/12/18 02:35:04;;;;;;;3.10;1.83;;;17.70;55.70;;;;;;5065796;28;20048;-78
2020/12/18 02:37:30;;;;;;;4.70;1.67;;;17.70;55.70;;;;;;5032250;28;20048;-79
2020/12/18 02:40:15;;;;;;;4.07;1.73;;;17.70;55.70;;;;;;5048691;28;20036;-79
2020/12/18 02:43:01;;;;;;;3.28;1.77;;;17.70;55.70;;;;;;5042456;28;20036;-79
2020/12/18 02:45:27;;;;;;;3.63;1.65;;;17.70;55.70;;;;;;5067618;28;20075;-79
2020/12/18 02:47:53;;;;;;;3.28;1.70;;;17.70;55.80;;;;;;5046358;28;20445;-80
2020/12/18 02:50:18;;;;;;;5.65;1.80;;;17.70;55.80;;;;;;5047897;28;20055;-79
2020/12/18 02:53:15;;;;;;;2.78;1.60;;;17.70;55.80;;;;;;5044005;28;20061;-79
2020/12/18 02:56:00;;;;;;;2.90;1.48;;;17.70;55.80;;;;;;5048621;28;20456;-79
2020/12/18 02:58:46;;;;;;;3.35;1.50;;;17.60;55.70;;;;;;5047215;28;20059;-79
2020/12/18 03:01:12;;;;;;;4.72;1.90;;;17.70;55.80;;;;;;5061094;28;20032;-80
2020/12/18 03:03:57;;;;;;;4.07;1.98;;;17.70;55.80;;;;;;5047089;28;20036;-79
2020/12/18 03:06:23;;;;;;;4.35;1.55;;;17.70;55.80;;;;;;5018870;28;20052;-79
2020/12/18 03:09:09;;;;;;;3.65;1.60;;;17.60;55.70;;;;;;5042352;28;20048;-79
2020/12/18 03:11:35;;;;;;;3.10;1.40;;;17.70;55.80;;;;;;5031529;28;20043;-79
2020/12/18 03:14:00;;;;;;;2.30;1.42;;;17.70;55.80;;;;;;5063655;28;20171;-79
2020/12/18 03:16:26;;;;;;;3.45;1.60;;;17.70;55.80;;;;;;5057468;28;20484;-79
2020/12/18 03:18:52;;;;;;;3.83;1.90;;;17.60;55.70;;;;;;5066640;28;20044;-79
2020/12/18 03:21:17;;;;;;;3.38;1.52;;;17.70;55.80;;;;;;5062808;28;20111;-79
2020/12/18 03:23:43;;;;;;;3.58;1.85;;;17.60;55.70;;;;;;5065793;28;20139;-79
2020/12/18 03:26:29;;;;;;;4.18;1.42;;;17.70;55.80;;;;;;5044701;28;20045;-79
2020/12/18 03:28:55;;;;;;;3.15;1.52;;;17.60;55.70;;;;;;5063901;28;20052;-79
2020/12/18 03:31:40;;;;;;;3.88;1.65;;;17.60;55.70;;;;;;5051248;28;20068;-79
2020/12/18 03:34:26;;;;;;;4.28;1.90;;;17.60;55.70;;;;;;5046415;28;20051;-79
2020/12/18 03:36:52;;;;;;;4.10;1.80;;;17.60;55.70;;;;;;5050186;28;20048;-79
2020/12/18 03:39:37;;;;;;;2.50;1.63;;;17.60;55.70;;;;;;5038503;28;20059;-79
2020/12/18 03:42:03;;;;;;;4.70;1.80;;;17.60;55.70;;;;;;5066772;28;20758;-79
2020/12/18 03:44:29;;;;;;;4.60;1.60;;;17.50;55.70;;;;;;5058676;28;20044;-79
2020/12/18 03:46:55;;;;;;;3.42;1.83;;;17.60;55.70;;;;;;5056119;28;20047;-78
2020/12/18 03:49:20;;;;;;;3.45;1.52;;;17.60;55.70;;;;;;5058387;28;20032;-80
2020/12/18 03:52:06;;;;;;;4.28;1.75;;;17.60;56.40;;;;;;5043866;28;20045;-80
2020/12/18 03:54:32;;;;;;;5.25;1.70;;;17.60;55.70;;;;;;5066714;28;20040;-80
2020/12/18 03:56:57;;;;;;;5.35;1.60;;;17.60;55.70;;;;;;5062426;28;20051;-80
2020/12/18 03:59:23;;;;;;;5.35;1.60;;;17.60;55.70;;;;;;5063478;28;20051;-80
2020/12/18 04:01:49;;;;;;;4.38;1.83;;;17.60;55.70;;;;;;5061728;28;20125;-80
2020/12/18 04:04:35;;;;;;;4.25;2.00;;;17.60;55.70;;;;;;5047691;28;20134;-80
2020/12/18 04:07:00;;;;;;;4.55;1.48;;;17.60;55.70;;;;;;5065076;28;20060;-80
2020/12/18 04:09:46;;;;;;;3.53;1.90;;;17.60;55.70;;;;;;5023321;28;20181;-80
2020/12/18 04:12:32;;;;;;;3.65;1.77;;;17.60;55.70;;;;;;5049497;28;20076;-79
2020/12/18 04:14:57;;;;;;;2.53;1.70;;;17.60;55.70;;;;;;5061759;28;20507;-80
2020/12/18 04:17:45;;;;;;;3.05;1.63;;;17.60;55.70;;;;;;5055124;28;20052;-79
2020/12/18 04:20:30;;;;;;;2.88;1.55;;;17.60;55.70;;;;;;5050072;28;20397;-79
2020/12/18 04:23:16;;;;;;;6.72;2.00;;;17.60;55.60;;;;;;5051550;28;20063;-80
2020/12/18 04:25:42;;;;;;;3.53;1.75;;;17.50;55.60;;;;;;5073192;28;20447;-79
2020/12/18 04:28:07;;;;;;;3.00;1.58;;;17.60;55.70;;;;;;5035184;28;20028;-79
2020/12/18 04:30:33;;;;;;;2.83;1.48;;;17.50;55.60;;;;;;5052068;28;20528;-78
2020/12/18 04:32:59;;;;;;;4.97;1.92;;;17.50;55.60;;;;;;5060042;28;20377;-78
2020/12/18 04:35:45;;;;;;;3.83;1.67;;;17.50;55.60;;;;;;5051165;28;20048;-79
2020/12/18 04:38:30;;;;;;;3.60;2.08;;;17.50;55.60;;;;;;5048200;28;20515;-80
2020/12/18 04:40:56;;;;;;;3.85;1.90;;;17.50;55.60;;;;;;5069755;28;20047;-80
2020/12/18 04:43:22;;;;;;;4.85;2.00;;;17.50;55.60;;;;;;5045095;28;20495;-79
2020/12/18 04:45:47;;;;;;;4.55;1.70;;;17.50;55.60;;;;;;5069250;28;20044;-79
2020/12/18 04:48:34;;;;;;;3.75;1.58;;;17.50;55.60;;;;;;5052333;28;20060;-79
2020/12/18 04:50:59;;;;;;;3.65;1.80;;;17.50;55.60;;;;;;5059098;28;20029;-79
2020/12/18 04:53:28;;;;;;;2.55;1.30;;;17.50;55.50;;;;;;5062305;28;20095;-79
2020/12/18 04:55:54;;;;;;;3.53;1.83;;;17.50;55.50;;;;;;5053556;28;20598;-78
2020/12/18 04:58:22;;;;;;;3.33;1.63;;;17.50;55.50;;;;;;5052417;28;20053;-79
2020/12/18 05:00:47;;;;;;;3.55;1.90;;;17.50;55.50;;;;;;5064343;28;20037;-79
2020/12/18 05:03:34;;;;;;;5.15;2.00;;;17.50;55.50;;;;;;5050892;28;20148;-79
2020/12/18 05:06:19;;;;;;;2.90;1.60;;;17.50;55.50;;;;;;5045908;28;20123;-79
2020/12/18 05:08:45;;;;;;;3.35;1.90;;;17.50;55.50;;;;;;5063761;28;20453;-79
2020/12/18 05:11:21;;;;;;;2.83;1.73;;;17.50;55.50;;;;;;5036461;28;20045;-80
2020/12/18 05:13:47;;;;;;;5.05;1.70;;;17.50;55.40;;;;;;5053701;28;20158;-79
2020/12/18 05:16:13;;;;;;;5.55;1.90;;;17.50;55.50;;;;;;5058949;28;20189;-79
2020/12/18 05:18:39;;;;;;;3.78;1.73;;;17.50;55.50;;;;;;5064478;28;20483;-79
2020/12/18 05:21:05;;;;;;;4.07;1.73;;;17.50;55.40;;;;;;5059689;28;20033;-79
2020/12/18 05:23:38;;;;;;;2.47;1.50;;;17.40;55.40;;;;;;5038027;28;20759;-79
2020/12/18 05:26:11;;;;;;;2.45;1.42;;;17.50;55.40;;;;;;5068982;28;20033;-80
2020/12/18 05:28:45;;;;;;;2.15;1.50;;;17.50;55.40;;;;;;5053210;28;20039;-79
2020/12/18 05:31:17;;;;;;;4.20;1.80;;;17.50;55.40;;;;;;5057595;28;20047;-79
2020/12/18 05:33:43;;;;;;;2.83;1.60;;;17.50;55.40;;;;;;5067308;28;20060;-79
2020/12/18 05:36:29;;;;;;;3.47;2.00;;;17.50;55.40;;;;;;5063133;28;20045;-79
2020/12/18 05:38:55;;;;;;;5.13;1.90;;;17.50;55.40;;;;;;5065471;28;20055;-79
2020/12/18 05:42:04;;;;;;;4.68;1.73;;;17.50;55.30;;;;;;5033869;28;20475;-79
2020/12/18 05:44:31;;;;;;;4.60;1.90;;;17.50;55.30;;;;;;4989897;28;20054;-79
2020/12/18 05:47:16;;;;;;;3.15;1.55;;;17.50;55.30;;;;;;4971782;28;20058;-79
2020/12/18 05:49:43;;;;;;;6.10;2.08;;;17.50;55.30;;;;;;4957861;28;20066;-79
2020/12/18 05:52:09;;;;;;;4.28;2.10;;;17.50;55.30;;;;;;4974784;28;20038;-80
2020/12/18 05:54:54;;;;;;;4.38;1.80;;;17.50;55.30;;;;;;4975350;28;20049;-80
2020/12/18 05:57:20;;;;;;;6.47;1.90;;;17.40;55.20;;;;;;4964108;28;20038;-80
2020/12/18 06:00:06;;;;;;;2.63;1.60;;;17.50;55.30;;;;;;4949048;28;20138;-80
2020/12/18 06:02:31;;;;;;;2.80;1.63;;;17.40;55.30;;;;;;4984675;28;20046;-81
2020/12/18 06:05:18;;;;;;;3.33;1.75;;;17.50;55.30;;;;;;4974347;28;20482;-80
2020/12/18 06:07:44;;;;;;;3.13;1.77;;;17.40;55.20;;;;;;4976771;28;20592;-80
2020/12/18 06:10:09;;;;;;;5.53;2.00;;;17.50;55.30;;;;;;4972040;28;20049;-79
2020/12/18 06:13:01;;;;;;;3.97;1.70;;;17.40;55.20;;;;;;4946264;28;20173;-81
2020/12/18 06:15:47;;;;;;;4.13;1.80;;;17.40;55.10;;;;;;4962747;28;20065;-79
2020/12/18 06:18:15;;;;;;;3.58;1.90;;;17.40;55.10;;;;;;4975281;28;20046;-78
2020/12/18 06:20:41;;;;;;;3.42;1.80;;;17.40;55.10;;;;;;4983488;28;20047;-78
2020/12/18 06:23:07;;;;;;;4.68;1.77;;;17.50;55.20;;;;;;5059987;28;20052;-77
2020/12/18 06:25:33;;;;;;;4.45;1.83;;;17.40;55.10;;;;;;5037973;28;20044;-77
2020/12/18 06:28:00;;;;;;;4.20;1.98;;;17.50;55.10;;;;;;5052076;28;20032;-80
2020/12/18 06:30:26;;;;;;;5.75;2.00;;;17.50;55.10;;;;;;5056741;28;20039;-80
2020/12/18 06:32:52;;;;;;;3.92;2.00;;;17.40;55.10;;;;;;5039584;28;20064;-80
2020/12/18 06:35:34;;;;;;;4.47;2.10;;;17.40;55.10;;;;;;5066658;28;20557;-81
2020/12/18 06:38:29;;;;;;;5.55;1.95;;;17.40;55.00;;;;;;5051972;28;20037;-80
2020/12/18 06:40:55;;;;;;;5.30;2.00;;;17.40;55.60;;;;;;4987908;28;20080;-80
2020/12/18 06:43:36;;;;;;;4.65;1.90;;;17.40;55.00;;;;;;4975776;28;20057;-80
2020/12/18 06:46:05;;;;;;;5.05;2.00;;;17.40;55.10;;;;;;4972062;28;20074;-81
2020/12/18 06:48:31;;;;;;;4.88;1.95;;;17.40;55.20;;;;;;4964121;28;20682;-80
2020/12/18 06:51:26;;;;;;;6.10;2.00;;;17.30;55.30;;;;;;4962480;28;20054;-80
2020/12/18 06:54:11;;;;;;;;;;;17.30;55.40;;;;;;4986642;28;20074;-81
2020/12/18 06:56:37;;;;;;;5.93;1.95;;;17.30;55.50;;;;;;4973209;28;19926;-80
2020/12/18 06:59:23;;;;;;;3.30;1.60;;;17.30;56.10;;;;;;4976159;28;20042;-79
2020/12/18 07:02:33;;;;;;;3.75;1.80;;;17.30;55.50;;;;;;4947980;28;20046;-79
2020/12/18 07:04:59;;;;;;;3.97;1.90;;;17.40;55.50;;;;;;4972132;28;20042;-77
2020/12/18 07:07:24;;;;;;;6.75;1.80;;;17.40;55.30;;;;;;4992476;28;20843;-76
2020/12/18 07:09:51;;;;;;;7.68;1.90;;;17.50;55.30;;;;;;4972697;28;20418;-77
2020/12/18 07:12:17;;;;;;;4.15;1.90;;;17.50;55.20;;;;;;4975116;28;20081;-76
2020/12/18 07:14:48;;;;;;;11.18;2.28;;;17.50;55.10;;;;;;4972279;28;20128;-77
2020/12/18 07:17:14;;;;;;;3.35;1.75;;;17.60;55.00;;;;;;5001714;28;20052;-81
2020/12/18 07:19:41;;;;;;;7.78;2.42;;;17.80;54.70;;;;;;5044153;28;20128;-81
2020/12/18 07:22:28;;;;;;;5.90;1.90;;;18.00;54.20;;;;;;5048262;28;20047;-79
2020/12/18 07:25:13;;;;;;;6.07;2.10;;;18.20;53.70;;;;;;5039079;28;20071;-79
2020/12/18 07:27:39;;;;;;;8.40;1.88;;;18.40;53.50;;;;;;5059578;28;20137;-76
2020/12/18 07:30:25;;;;;;;6.18;2.00;;;18.40;53.30;;;;;;5048928;28;20061;-76
2020/12/18 07:33:11;;;;;;;8.18;1.83;;;18.80;53.30;;;;;;5044558;28;20036;-77
2020/12/18 07:35:57;;;;;;;7.78;1.92;;;19.00;52.50;;;;;;5039510;28;20037;-77
2020/12/18 07:38:26;;;;;;;14.10;2.28;;;19.00;52.20;;;;;;5043390;28;20396;-76
2020/12/18 07:40:53;;;;;;;6.57;1.90;;;19.20;51.70;;;;;;5059412;28;20336;-77
2020/12/18 07:43:38;;;;;;;10.25;2.03;;;19.40;51.40;;;;;;5043855;28;20059;-76
2020/12/18 07:46:06;;;;;;;9.45;2.35;;;19.70;50.90;;;;;;5056970;28;20057;-77
2020/12/18 07:48:51;;;;;;;4.18;1.75;;;19.70;50.60;;;;;;5059321;28;20456;-78
2020/12/18 07:51:37;;;;;;;10.82;2.00;;;19.80;50.40;;;;;;5041733;28;20064;-73
2020/12/18 07:54:03;;;;;;;6.97;2.05;;;20.00;50.00;;;;;;5062354;28;20061;-74
2020/12/18 07:56:29;;;;;;;10.88;2.10;;;20.20;49.50;;;;;;5061762;28;20033;-76
2020/12/18 07:59:06;;;;;;;9.35;2.20;;;20.30;49.10;;;;;;5053309;28;20119;-77
2020/12/18 08:01:33;;;;;;;9.30;2.50;;;20.30;48.40;;;;;;5052197;28;20229;-77
2020/12/18 08:04:00;;;;;;;9.75;2.40;;;20.30;48.50;;;;;;5059940;28;20133;-73
2020/12/18 08:06:45;;;;;;;8.55;2.63;;;20.20;48.20;;;;;;5055012;28;20106;-76
2020/12/18 08:09:31;;;;;;;6.88;2.40;;;20.20;48.20;;;;;;5049219;28;20392;-76
2020/12/18 08:11:57;;;;;;;10.15;2.40;;;20.20;48.00;;;;;;5053358;28;20052;-77
2020/12/18 08:14:43;;;;;;;6.50;2.20;;;20.00;48.10;;;;;;5044456;28;20045;-75
2020/12/18 08:17:28;;;;;;;11.25;2.10;;;19.90;48.20;;;;;;5041653;28;20155;-80
2020/12/18 08:19:54;;;;;;;12.65;2.70;;;19.70;48.40;;;;;;5074002;28;20164;-74
2020/12/18 08:22:20;;;;;;;8.13;2.35;;;19.80;48.40;;;;;;5048962;28;20488;-75
2020/12/18 08:24:45;;;;;;;7.95;2.50;;;19.80;48.40;;;;;;5055536;28;20056;-74
2020/12/18 08:27:22;;;;;;;8.02;2.58;;;19.60;48.60;;;;;;5050353;28;20056;-75
2020/12/18 08:29:48;;;;;;;8.85;2.30;;;19.50;48.70;;;;;;5053570;28;20384;-77
2020/12/18 08:32:19;;;;;;;13.10;2.88;;;19.40;49.10;;;;;;5069063;28;20032;-74
2020/12/18 08:35:05;;;;;;;8.07;2.50;;;19.20;49.20;;;;;;5040793;28;20103;-76
2020/12/18 08:37:31;;;;;;;11.48;2.45;;;19.20;49.60;;;;;;5038547;28;20119;-77
2020/12/18 08:39:57;;;;;;;9.32;2.38;;;19.10;49.80;;;;;;5056653;28;20412;-76
2020/12/18 08:42:23;;;;;;;12.60;2.10;;;19.00;49.90;;;;;;5070105;28;20045;-76
2020/12/18 08:44:49;;;;;;;7.85;2.33;;;18.90;50.00;;;;;;5062932;28;20089;-75
2020/12/18 08:47:22;;;;;;;9.18;2.42;;;18.90;50.10;;;;;;5073853;28;20083;-75
2020/12/18 08:49:48;;;;;;;6.28;2.22;;;18.80;50.10;;;;;;5071253;28;20091;-75
2020/12/18 08:52:35;;;;;;;8.40;2.17;;;18.80;50.30;;;;;;5059419;28;20060;-77
2020/12/18 08:55:21;;;;;;;8.02;2.03;;;18.80;50.40;;;;;;5048987;28;20077;-78
2020/12/18 08:57:46;;;;;;;6.20;2.00;;;18.80;50.40;;;;;;5047935;28;20522;-76
2020/12/18 09:00:19;;;;;;;8.82;1.88;;;18.70;50.30;;;;;;5071047;28;20074;-78
2020/12/18 09:03:05;;;;;;;7.60;2.10;;;18.70;50.20;;;;;;5045922;28;20131;-77
2020/12/18 09:05:51;;;;;;;6.38;2.00;;;18.80;50.30;;;;;;5038996;28;20049;-76
2020/12/18 09:08:19;;;;;;;6.82;2.00;;;18.70;50.20;;;;;;5035968;28;20132;-75
2020/12/18 09:10:51;;;;;;;6.50;2.10;;;18.70;50.30;;;;;;5053212;28;20555;-77
2020/12/18 09:13:28;;;;;;;6.50;2.00;;;18.70;50.20;;;;;;5061781;28;20408;-76
2020/12/18 09:16:05;;;;;;;5.57;1.88;;;18.80;50.10;;;;;;5061838;28;20040;-78
2020/12/18 09:18:37;;;;;;;9.07;2.00;;;18.70;50.10;;;;;;5054180;28;20037;-76
2020/12/18 09:21:13;;;;;;;6.88;1.88;;;18.70;50.20;;;;;;5071175;28;20125;-75
2020/12/18 09:23:58;;;;;;;10.95;2.65;;;18.60;50.40;;;;;;5053264;28;20047;-77
2020/12/18 09:26:25;;;;;;;6.13;2.00;;;18.60;50.60;;;;;;5065498;28;20028;-75
2020/12/18 09:28:50;;;;;;;6.60;1.67;;;18.50;50.70;;;;;;5008987;28;20040;-74
2020/12/18 09:31:16;;;;;;;6.10;1.67;;;18.50;50.80;;;;;;5048137;28;20440;-74
2020/12/18 09:33:42;;;;;;;10.43;2.13;;;18.50;50.90;;;;;;5072940;28;20094;-75
2020/12/18 09:36:28;;;;;;;5.07;1.63;;;18.50;51.00;;;;;;5052677;28;20042;-74
2020/12/18 09:39:13;;;;;;;7.20;1.98;;;18.40;51.00;;;;;;5055236;28;20138;-76
2020/12/18 09:41:39;;;;;;;5.70;1.80;;;18.40;51.00;;;;;;5070071;28;20467;-74
2020/12/18 09:44:05;;;;;;;7.97;2.15;;;18.40;51.10;;;;;;5057618;28;20492;-75
2020/12/18 09:46:50;;;;;;;9.13;2.38;;;18.40;51.10;;;;;;5050392;28;20051;-76
2020/12/18 09:49:16;;;;;;;10.30;1.70;;;18.40;51.20;;;;;;5040514;28;20045;-76
2020/12/18 09:52:02;;;;;;;5.93;1.65;;;18.40;51.20;;;;;;5031027;28;20045;-77
2020/12/18 09:54:29;;;;;;;8.82;2.00;;;18.40;51.20;;;;;;5024435;28;20084;-75
2020/12/18 09:56:57;;;;;;;6.13;1.80;;;18.40;51.10;;;;;;5051441;28;20075;-75
2020/12/18 09:59:23;;;;;;;7.55;1.60;;;18.50;51.20;;;;;;5063936;28;20045;-74
2020/12/18 10:01:52;;;;;;;5.07;1.70;;;18.40;51.10;;;;;;5067252;28;20040;-75
2020/12/18 10:04:18;;;;;;;6.70;1.88;;;18.50;51.10;;;;;;5041553;28;20041;-77
2020/12/18 10:06:43;;;;;;;5.15;1.70;;;18.50;51.10;;;;;;5072208;28;20032;-76
2020/12/18 10:09:09;;;;;;;7.13;1.58;;;18.50;51.10;;;;;;5057029;28;20049;-75
2020/12/18 10:11:35;;;;;;;6.40;1.90;;;18.50;51.20;;;;;;5035518;28;20052;-76
2020/12/18 10:14:00;;;;;;;10.25;1.88;;;18.60;51.30;;;;;;5055306;28;20408;-76
2020/12/18 10:16:26;;;;;;;5.00;1.60;;;18.60;51.30;;;;;;5037946;28;20052;-75
2020/12/18 10:19:12;;;;;;;7.70;1.80;;;18.50;51.30;;;;;;5051821;28;20449;-76
2020/12/18 10:21:37;;;;;;;10.90;1.88;;;18.50;51.30;;;;;;5066674;28;20091;-74
2020/12/18 10:24:03;;;;;;;8.43;1.52;;;18.50;51.40;;;;;;5058456;28;20577;-75
2020/12/18 10:26:29;;;;;;;14.65;2.00;;;18.50;51.40;;;;;;5061155;28;20124;-72
2020/12/18 10:29:14;;;;;;;6.40;2.00;;;18.50;51.50;;;;;;5045150;28;20475;-75
2020/12/18 10:31:40;;;;;;;8.52;2.00;;;18.50;51.50;;;;;;5061656;28;20147;-75
2020/12/18 10:34:25;;;;;;;10.45;1.77;;;18.50;51.50;;;;;;5057575;28;20044;-74
2020/12/18 10:36:53;;;;;;;7.60;1.80;;;18.50;51.50;;;;;;5061668;28;20468;-74
2020/12/18 10:39:19;;;;;;;7.15;2.05;;;18.50;51.50;;;;;;5052889;28;20052;-74
2020/12/18 10:41:44;;;;;;;10.63;1.90;;;18.50;51.50;;;;;;5053918;28;20127;-74
2020/12/18 10:44:30;;;;;;;6.35;1.95;;;18.50;52.20;;;;;;5044325;28;20072;-75
2020/12/18 10:46:56;;;;;;;11.98;2.03;;;18.50;51.60;;;;;;5072382;28;20074;-75
2020/12/18 10:49:21;;;;;;;8.20;1.90;;;18.50;51.60;;;;;;5059878;28;20458;-75
2020/12/18 10:51:47;;;;;;;5.97;1.60;;;18.50;51.60;;;;;;5064091;28;20061;-74
2020/12/18 10:54:13;;;;;;;5.63;1.73;;;18.50;51.60;;;;;;5049598;28;20559;-76
2020/12/18 10:56:43;;;;;;;5.28;1.80;;;18.50;51.60;;;;;;5064124;28;20040;-75
2020/12/18 10:59:09;;;;;;;6.78;1.75;;;18.50;51.60;;;;;;5061763;28;20116;-75
2020/12/18 11:01:35;;;;;;;6.82;1.55;;;18.50;51.60;;;;;;5046477;28;20047;-75
2020/12/18 11:04:00;;;;;;;7.18;1.80;;;18.50;51.50;;;;;;5035708;28;20048;-75
2020/12/18 11:06:26;;;;;;;6.95;1.60;;;18.50;51.50;;;;;;5065788;28;20029;-75
2020/12/18 11:08:52;;;;;;;7.47;1.90;;;18.50;51.50;;;;;;5053876;28;20045;-75
2020/12/18 11:11:17;;;;;;;9.10;2.00;;;18.50;51.50;;;;;;5018988;28;20048;-75
2020/12/18 11:14:03;;;;;;;5.90;1.90;;;18.50;51.50;;;;;;5025617;28;20060;-74
2020/12/18 11:16:29;;;;;;;8.43;2.35;;;18.50;51.40;;;;;;5037282;28;20455;-74
2020/12/18 11:18:56;;;;;;;8.50;1.98;;;18.50;51.40;;;;;;5037294;28;20113;-74
2020/12/18 11:21:46;;;;;;;11.25;1.73;;;18.50;51.40;;;;;;5061925;28;20498;-75
2020/12/18 11:24:32;;;;;;;7.43;1.77;;;18.50;51.30;;;;;;5051521;28;20048;-75
2020/12/18 11:26:58;;;;;;;5.60;1.92;;;18.50;51.30;;;;;;5074787;28;20114;-74
2020/12/18 11:29:23;;;;;;;6.85;1.70;;;18.50;51.30;;;;;;5075891;28;20054;-74
2020/12/18 11:31:49;;;;;;;7.70;1.85;;;18.50;51.20;;;;;;5074942;28;20048;-75
2020/12/18 11:34:15;;;;;;;5.32;2.22;;;18.50;51.20;;;;;;5053684;28;20057;-74
2020/12/18 11:36:40;;;;;;;6.63;2.00;;;18.50;51.20;;;;;;5048830;28;20559;-75
2020/12/18 11:39:06;;;;;;;5.10;2.00;;;18.50;51.20;;;;;;5073960;28;20063;-75
2020/12/18 11:41:33;;;;;;;4.15;1.80;;;18.50;51.20;;;;;;5040625;28;20049;-75
2020/12/18 11:43:58;;;;;;;5.38;1.60;;;18.60;51.20;;;;;;5039189;28;20440;-74
2020/12/18 11:46:48;;;;;;;4.72;1.90;;;18.50;51.10;;;;;;5049007;28;20056;-75
2020/12/18 11:49:13;;;;;;;7.68;1.63;;;18.50;51.10;;;;;;5037653;28;20041;-74
2020/12/18 11:51:39;;;;;;;3.28;1.40;;;18.50;51.10;;;;;;5053082;28;20490;-75
2020/12/18 11:54:05;;;;;;;5.57;1.98;;;18.50;51.10;;;;;;5025340;28;20060;-74
2020/12/18 11:56:50;;;;;;;4.15;1.90;;;18.50;51.10;;;;;;5040976;28;20053;-73
2020/12/18 11:59:36;;;;;;;9.07;2.40;;;18.50;51.10;;;;;;5027213;28;20056;-72
2020/12/18 12:02:22;;;;;;;6.97;1.88;;;18.50;51.10;;;;;;5056894;28;20053;-72
2020/12/18 12:04:48;;;;;;;5.45;2.10;;;18.50;51.10;;;;;;5053081;28;20060;-72
2020/12/18 12:07:13;;;;;;;5.30;2.03;;;18.50;51.00;;;;;;5053667;28;20080;-74
2020/12/18 12:09:39;;;;;;;4.57;1.92;;;18.40;51.00;;;;;;5053602;28;20049;-73
2020/12/18 12:12:10;;;;;;;5.80;2.08;;;18.40;51.00;;;;;;5064760;28;20049;-74
2020/12/18 12:14:35;;;;;;;7.15;2.25;;;18.40;50.90;;;;;;5053124;28;20119;-74
2020/12/18 12:17:01;;;;;;;5.70;1.92;;;18.40;50.90;;;;;;5061940;28;20389;-74
2020/12/18 12:19:47;;;;;;;3.92;1.65;;;18.40;51.00;;;;;;5048697;28;20511;-72
2020/12/18 12:22:13;;;;;;;4.85;1.83;;;18.40;51.00;;;;;;5072353;28;20033;-72
2020/12/18 12:24:42;;;;;;;5.55;1.98;;;18.40;51.00;;;;;;5060451;28;20045;-72
2020/12/18 12:27:10;;;;;;;4.40;2.00;;;18.40;51.10;;;;;;5065515;28;20071;-72
2020/12/18 12:29:35;;;;;;;4.85;1.80;;;18.40;51.00;;;;;;5072838;28;20072;-73
2020/12/18 12:32:01;;;;;;;4.43;1.88;;;18.40;51.10;;;;;;5070841;28;20435;-73
2020/12/18 12:34:27;;;;;;;3.33;1.70;;;18.40;51.10;;;;;;5054329;28;20080;-73
2020/12/18 12:36:56;;;;;;;6.10;1.90;;;18.40;51.10;;;;;;5054077;28;20545;-76
2020/12/18 12:39:21;;;;;;;6.00;1.63;;;18.40;51.00;;;;;;5049940;28;20045;-74
2020/12/18 12:41:47;;;;;;;4.10;1.58;;;18.40;51.10;;;;;;5043435;28;20780;-74
2020/12/18 12:44:13;;;;;;;5.55;1.90;;;18.40;51.10;;;;;;5059853;28;20036;-74
2020/12/18 12:46:38;;;;;;;4.93;1.60;;;18.40;51.10;;;;;;5071981;28;20089;-73
2020/12/18 12:49:04;;;;;;;4.88;1.83;;;18.40;51.10;;;;;;5056469;28;20044;-73
2020/12/18 12:51:30;;;;;;;6.38;2.45;;;18.30;51.10;;;;;;5049644;28;20140;-74
2020/12/18 12:53:55;;;;;;;5.13;1.75;;;18.40;51.20;;;;;;5071559;28;20131;-74
2020/12/18 12:56:21;;;;;;;4.20;1.73;;;18.40;51.10;;;;;;5074019;28;20051;-74
2020/12/18 12:58:47;;;;;;;6.22;1.90;;;18.40;51.10;;;;;;5047090;28;20403;-74
2020/12/18 13:01:13;;;;;;;7.10;2.10;;;18.40;51.20;;;;;;5060068;28;20053;-74
2020/12/18 13:03:39;;;;;;;5.88;1.98;;;18.40;51.10;;;;;;5065678;28;20051;-74
2020/12/18 13:06:04;;;;;;;4.05;1.80;;;18.30;51.10;;;;;;5050477;28;20385;-74
2020/12/18 13:08:50;;;;;;;5.20;1.98;;;18.40;51.20;;;;;;5039516;28;20045;-75